createdAt,value
2022-12-24T00:01:50.943Z,101338.44
2022-12-24T00:04:19.818Z,101331.66
2022-12-24T00:06:50.310Z,101332.09
2022-12-24T00:09:20.331Z,101333.06
2022-12-24T00:11:50.459Z,101335.88
2022-12-24T00:14:19.329Z,101329.97
2022-12-24T00:16:48.482Z,101324.00
2022-12-24T00:19:17.436Z,101329.94
2022-12-24T00:21:46.296Z,101331.78
2022-12-24T00:24:15.232Z,101332.50
2022-12-24T00:26:43.957Z,101327.13
2022-12-24T00:29:14.317Z,101330.09
2022-12-24T00:31:43.865Z,101330.22
2022-12-24T00:34:12.650Z,101326.41
2022-12-24T00:36:42.352Z,101329.94
2022-12-24T00:39:11.019Z,101325.69
2022-12-24T00:41:39.883Z,101296.94
2022-12-24T00:44:10.348Z,101328.09
2022-12-24T00:46:43.152Z,101305.09
2022-12-24T00:49:14.216Z,101293.84
2022-12-24T00:51:42.907Z,101334.31
2022-12-24T00:54:11.684Z,101329.09
2022-12-24T00:56:41.365Z,101324.03
2022-12-24T00:59:10.436Z,101323.59
2022-12-24T01:01:40.705Z,101323.03
2022-12-24T01:04:27.041Z,101323.31
2022-12-24T01:06:56.261Z,101328.22
2022-12-24T01:09:25.234Z,101325.16
2022-12-24T01:11:53.953Z,101333.47
2022-12-24T01:14:25.118Z,101325.84
2022-12-24T01:16:55.599Z,101329.59
2022-12-24T01:19:24.258Z,101334.81
2022-12-24T01:21:53.298Z,101330.16
2022-12-24T01:24:22.174Z,101338.00
2022-12-24T01:26:50.956Z,101343.91
2022-12-24T01:29:19.734Z,101342.91
2022-12-24T01:31:48.833Z,101346.69
2022-12-24T01:34:19.118Z,101350.34
2022-12-24T01:36:47.799Z,101350.50
2022-12-24T01:39:16.537Z,101344.41
2022-12-24T01:42:03.754Z,101351.03
2022-12-24T01:44:37.079Z,101283.38
2022-12-24T01:47:13.198Z,101369.16
2022-12-24T01:49:49.575Z,101366.19
2022-12-24T01:52:22.146Z,101353.63
2022-12-24T01:54:54.051Z,101358.13
2022-12-24T01:57:27.635Z,101205.59
2022-12-24T02:00:01.869Z,101352.56
2022-12-24T02:02:34.650Z,101353.09
2022-12-24T02:05:09.664Z,101348.97
2022-12-24T02:07:39.857Z,101338.81
2022-12-24T02:10:11.053Z,101346.13
2022-12-24T02:12:42.296Z,101340.75
2022-12-24T02:15:13.978Z,101352.19
2022-12-24T02:17:51.083Z,101353.69
2022-12-24T02:20:38.169Z,101339.00
2022-12-24T02:23:29.896Z,101346.00
2022-12-24T02:26:11.485Z,101348.72
2022-12-24T02:29:01.695Z,101341.28
2022-12-24T02:31:38.346Z,101341.22
2022-12-24T02:34:14.555Z,101352.50
2022-12-24T02:36:48.344Z,101330.25
2022-12-24T02:39:22.151Z,101118.63
2022-12-24T02:42:07.751Z,101321.47
2022-12-24T02:44:41.858Z,101283.13
2022-12-24T02:47:12.649Z,101326.59
2022-12-24T02:49:44.406Z,101317.59
2022-12-24T02:52:31.068Z,101319.56
2022-12-24T02:55:02.821Z,101205.97
2022-12-24T02:57:52.066Z,101317.16
2022-12-24T03:00:24.057Z,101323.75
2022-12-24T03:03:18.036Z,101309.69
2022-12-24T03:05:50.589Z,101314.31
2022-12-24T03:08:26.996Z,101312.75
2022-12-24T03:10:58.781Z,101313.97
2022-12-24T03:13:29.305Z,101327.47
2022-12-24T03:15:58.137Z,101330.13
2022-12-24T03:18:30.185Z,101323.56
2022-12-24T03:21:03.064Z,101293.19
2022-12-24T03:23:31.559Z,101325.78
2022-12-24T03:26:02.719Z,101298.31
2022-12-24T03:28:31.095Z,101326.34
2022-12-24T03:31:04.454Z,101193.88
2022-12-24T03:33:34.308Z,101316.25
2022-12-24T03:36:03.116Z,101317.41
2022-12-24T03:38:31.758Z,101317.66
2022-12-24T03:41:00.306Z,101322.16
2022-12-24T03:43:28.674Z,101319.91
2022-12-24T03:45:57.166Z,101324.78
2022-12-24T03:48:32.389Z,101328.44
2022-12-24T03:51:02.635Z,101328.47
2022-12-24T03:53:33.953Z,101336.25
2022-12-24T03:56:02.287Z,101336.78
2022-12-24T03:58:30.469Z,101328.41
2022-12-24T04:00:59.784Z,101325.19
2022-12-24T04:03:28.144Z,101324.03
2022-12-24T04:06:06.937Z,101328.78
2022-12-24T04:08:36.170Z,101320.28
2022-12-24T04:11:09.653Z,101302.34
2022-12-24T04:13:38.556Z,101331.94
2022-12-24T04:16:09.513Z,101300.19
2022-12-24T04:18:38.332Z,101329.78
2022-12-24T04:21:09.459Z,101309.47
2022-12-24T04:23:40.201Z,101329.69
2022-12-24T04:26:10.844Z,101332.50
2022-12-24T04:28:39.994Z,101329.09
2022-12-24T04:31:14.657Z,101323.66
2022-12-24T04:33:43.001Z,101330.09
2022-12-24T04:36:14.880Z,101334.44
2022-12-24T04:38:43.197Z,101337.13
2022-12-24T04:41:20.824Z,101336.44
2022-12-24T04:43:51.753Z,101330.38
2022-12-24T04:46:23.025Z,101302.56
2022-12-24T04:48:53.887Z,101308.41
2022-12-24T04:51:24.614Z,101337.13
2022-12-24T04:53:53.619Z,101348.94
2022-12-24T04:56:24.340Z,101348.44
2022-12-24T04:58:53.556Z,101349.03
2022-12-24T05:01:27.516Z,101340.31
2022-12-24T05:03:58.182Z,101337.38
2022-12-24T05:06:31.306Z,101338.84
2022-12-24T05:09:00.588Z,101334.13
2022-12-24T05:11:29.166Z,101338.22
2022-12-24T05:13:57.538Z,101331.19
2022-12-24T05:16:26.175Z,101344.41
2022-12-24T05:18:55.101Z,101319.06
2022-12-24T05:21:25.156Z,101190.53
2022-12-24T05:24:12.784Z,101322.13
2022-12-24T05:26:43.397Z,101199.69
2022-12-24T05:29:13.329Z,101312.63
2022-12-24T05:31:42.824Z,101322.81
2022-12-24T05:34:11.595Z,101316.50
2022-12-24T05:36:40.352Z,101323.81
2022-12-24T05:39:15.810Z,101339.44
2022-12-24T05:41:44.938Z,101337.59
2022-12-24T05:44:13.241Z,101330.78
2022-12-24T05:46:41.620Z,101338.28
2022-12-24T05:49:10.136Z,101328.13
2022-12-24T05:51:40.480Z,101338.78
2022-12-24T05:54:10.368Z,101332.25
2022-12-24T05:56:38.657Z,101338.28
2022-12-24T05:59:07.928Z,101345.44
2022-12-24T06:01:36.283Z,101342.31
2022-12-24T06:04:04.772Z,101335.50
2022-12-24T06:06:33.228Z,101333.31
2022-12-24T06:09:01.539Z,101336.31
2022-12-24T06:11:31.697Z,101326.38
2022-12-24T06:14:00.065Z,101331.22
2022-12-24T06:16:28.493Z,101331.72
2022-12-24T06:18:57.162Z,101337.94
2022-12-24T06:21:25.421Z,101335.63
2022-12-24T06:23:53.752Z,101322.25
2022-12-24T06:26:23.870Z,101332.28
2022-12-24T06:28:53.647Z,101339.69
2022-12-24T06:31:23.949Z,101335.78
2022-12-24T06:33:53.305Z,101328.47
2022-12-24T06:36:23.795Z,101336.88
2022-12-24T06:38:52.901Z,101320.88
2022-12-24T06:41:23.681Z,101316.41
2022-12-24T06:43:54.746Z,101325.53
2022-12-24T06:46:23.473Z,101323.72
2022-12-24T06:48:51.912Z,101316.91
2022-12-24T06:51:20.955Z,101334.22
2022-12-24T06:53:50.709Z,101300.88
2022-12-24T06:56:19.906Z,101313.25
2022-12-24T06:58:48.320Z,101318.69
2022-12-24T07:01:20.180Z,101319.41
2022-12-24T07:03:48.951Z,101316.03
2022-12-24T07:06:20.629Z,101318.06
2022-12-24T07:08:48.922Z,101308.72
2022-12-24T07:11:17.707Z,101264.44
2022-12-24T07:13:46.139Z,101303.28
2022-12-24T07:16:14.687Z,101309.81
2022-12-24T07:18:45.569Z,101310.91
2022-12-24T07:21:13.921Z,101318.25
2022-12-24T07:23:42.163Z,101318.81
2022-12-24T07:26:11.959Z,101322.78
2022-12-24T07:28:40.173Z,101322.78
2022-12-24T07:31:08.512Z,101326.81
2022-12-24T07:33:36.761Z,101321.50
2022-12-24T07:36:09.208Z,101326.97
2022-12-24T07:38:39.228Z,101235.38
2022-12-24T07:41:07.583Z,101319.56
2022-12-24T07:43:35.819Z,101327.66
2022-12-24T07:46:04.432Z,101328.44
2022-12-24T07:48:34.070Z,101320.94
2022-12-24T07:51:02.897Z,101328.34
2022-12-24T07:53:33.172Z,101332.59
2022-12-24T07:56:04.178Z,101338.31
2022-12-24T07:58:34.510Z,101338.50
2022-12-24T08:01:02.877Z,101333.63
2022-12-24T08:03:31.282Z,101335.50
2022-12-24T08:05:59.641Z,101331.53
2022-12-24T08:08:28.462Z,101329.63
2022-12-24T08:11:02.074Z,101303.03
2022-12-24T08:13:30.386Z,101331.31
2022-12-24T08:15:58.756Z,101337.25
2022-12-24T08:18:27.386Z,101332.16
2022-12-24T08:20:55.634Z,101335.34
2022-12-24T08:23:23.994Z,101339.94
2022-12-24T08:25:52.363Z,101349.91
2022-12-24T08:28:22.429Z,101343.78
2022-12-24T08:30:51.541Z,101344.63
2022-12-24T08:33:20.731Z,101319.41
2022-12-24T08:35:50.129Z,101337.34
2022-12-24T08:38:18.579Z,101347.78
2022-12-24T08:40:49.007Z,101338.34
2022-12-24T08:43:17.999Z,101351.28
2022-12-24T08:45:48.316Z,101349.97
2022-12-24T08:48:16.709Z,101349.50
2022-12-24T08:50:45.854Z,101335.44
2022-12-24T08:53:14.897Z,101334.81
2022-12-24T08:55:43.266Z,101342.38
2022-12-24T08:58:11.822Z,101341.53
2022-12-24T09:00:40.316Z,101343.59
2022-12-24T09:03:15.230Z,101196.91
2022-12-24T09:05:44.116Z,101357.50
2022-12-24T09:08:12.718Z,101355.75
2022-12-24T09:10:41.041Z,101360.47
2022-12-24T09:13:09.366Z,101361.22
2022-12-24T09:15:37.923Z,101344.47
2022-12-24T09:18:06.838Z,101345.91
2022-12-24T09:20:36.578Z,101346.44
2022-12-24T09:23:04.911Z,101342.97
2022-12-24T09:25:33.193Z,101361.78
2022-12-24T09:28:01.603Z,101360.84
2022-12-24T09:30:29.915Z,101366.22
2022-12-24T09:32:58.313Z,101367.00
2022-12-24T09:35:26.629Z,101373.94
2022-12-24T09:38:03.134Z,101381.44
2022-12-24T09:40:40.029Z,101384.28
2022-12-24T09:43:16.019Z,101342.22
2022-12-24T09:45:51.420Z,101380.63
2022-12-24T09:48:24.127Z,101381.19
2022-12-24T09:50:56.250Z,101348.72
2022-12-24T09:53:30.493Z,101372.06
2022-12-24T09:56:03.061Z,101346.75
2022-12-24T09:58:36.492Z,101369.38
2022-12-24T10:01:05.661Z,101371.50
2022-12-24T10:03:34.232Z,101368.41
2022-12-24T10:06:10.086Z,101224.09
2022-12-24T10:08:54.753Z,101368.56
2022-12-24T10:11:29.060Z,101335.00
2022-12-24T10:14:10.097Z,101362.09
2022-12-24T10:16:47.487Z,101361.41
2022-12-24T10:19:20.352Z,101353.09
2022-12-24T10:22:01.967Z,101350.41
2022-12-24T10:24:38.791Z,101351.41
2022-12-24T10:27:15.111Z,101340.00
2022-12-24T10:29:47.970Z,101351.66
2022-12-24T10:32:22.571Z,101345.31
2022-12-24T10:34:58.944Z,101341.94
2022-12-24T10:37:30.238Z,101195.13
2022-12-24T10:40:02.040Z,101334.38
2022-12-24T10:42:48.362Z,101314.63
2022-12-24T10:45:23.071Z,101336.56
2022-12-24T10:47:56.720Z,101335.72
2022-12-24T10:50:33.960Z,101323.84
2022-12-24T10:53:08.325Z,101207.63
2022-12-24T10:55:38.089Z,101337.69
2022-12-24T10:58:08.727Z,101320.16
2022-12-24T11:00:43.511Z,101300.94
2022-12-24T11:03:24.681Z,101320.91
2022-12-24T11:06:06.034Z,101290.03
2022-12-24T11:08:35.546Z,101322.84
2022-12-24T11:11:08.534Z,101324.81
2022-12-24T11:13:41.244Z,101316.69
2022-12-24T11:16:18.569Z,101313.78
2022-12-24T11:18:51.621Z,101309.66
2022-12-24T11:21:22.960Z,101301.81
2022-12-24T11:23:54.646Z,101305.56
2022-12-24T11:26:28.198Z,101298.75
2022-12-24T11:29:14.524Z,101296.00
2022-12-24T11:31:43.486Z,101278.38
2022-12-24T11:34:36.759Z,101276.00
2022-12-24T11:37:14.784Z,101244.66
2022-12-24T11:39:53.109Z,101242.72
2022-12-24T11:42:30.955Z,101267.94
2022-12-24T11:45:03.424Z,101130.09
2022-12-24T11:47:36.477Z,101235.13
2022-12-24T11:50:23.038Z,101256.50
2022-12-24T11:52:56.416Z,101233.59
2022-12-24T11:55:37.724Z,101256.94
2022-12-24T11:58:28.779Z,101252.59
2022-12-24T12:01:05.807Z,101227.47
2022-12-24T12:03:41.868Z,101258.03
2022-12-24T12:06:21.061Z,101196.16
2022-12-24T12:08:51.649Z,101216.94
2022-12-24T12:11:20.631Z,101245.97
2022-12-24T12:13:50.320Z,101245.16
2022-12-24T12:16:25.201Z,101208.91
2022-12-24T12:18:58.740Z,101238.59
2022-12-24T12:21:33.799Z,101201.03
2022-12-24T12:24:07.109Z,101209.63
2022-12-24T12:26:35.602Z,101231.25
2022-12-24T12:29:26.179Z,101229.25
2022-12-24T12:31:58.947Z,101219.09
2022-12-24T12:34:34.051Z,101188.59
2022-12-24T12:37:14.472Z,101218.78
2022-12-24T12:39:44.077Z,101230.94
2022-12-24T12:42:23.931Z,101226.56
2022-12-24T12:45:11.613Z,101227.22
2022-12-24T12:47:53.634Z,101228.72
2022-12-24T12:50:29.876Z,101204.31
2022-12-24T12:53:25.544Z,101223.50
2022-12-24T12:56:06.779Z,101210.84
2022-12-24T12:58:40.923Z,101218.28
2022-12-24T13:01:16.766Z,101217.94
2022-12-24T13:04:08.815Z,101191.63
2022-12-24T13:07:05.355Z,101215.06
2022-12-24T13:10:16.656Z,101212.03
2022-12-24T13:13:04.108Z,101171.06
2022-12-24T13:15:48.985Z,101209.13
2022-12-24T13:18:53.169Z,101204.06
2022-12-24T13:21:24.298Z,101206.44
2022-12-24T13:24:05.689Z,101206.94
2022-12-24T13:26:34.338Z,101198.84
2022-12-24T13:29:41.515Z,101200.34
2022-12-24T13:32:50.252Z,101201.53
2022-12-24T13:35:40.007Z,101203.91
2022-12-24T13:38:42.405Z,101200.84
2022-12-24T13:46:13.571Z,101203.22
2022-12-24T13:48:42.234Z,101189.34
2022-12-24T13:51:25.715Z,101064.63
2022-12-24T13:54:00.182Z,101174.03
2022-12-24T13:56:32.716Z,101110.22
2022-12-24T13:59:13.629Z,101189.16
2022-12-24T14:01:44.564Z,101139.84
2022-12-24T14:04:25.731Z,101165.59
2022-12-24T14:06:59.356Z,101184.78
2022-12-24T14:09:28.648Z,101181.72
2022-12-24T14:12:17.005Z,101194.22
2022-12-24T14:14:45.473Z,101195.75
2022-12-24T14:17:23.071Z,101190.69
2022-12-24T14:19:53.821Z,101166.22
2022-12-24T14:22:30.575Z,101192.84
2022-12-24T14:25:02.345Z,101082.22
2022-12-24T14:27:47.654Z,101191.84
2022-12-24T14:31:13.976Z,101195.56
2022-12-24T14:34:38.766Z,101196.06
2022-12-24T14:37:08.605Z,101193.38
2022-12-24T14:39:57.017Z,101198.78
2022-12-24T14:42:37.357Z,101173.47
2022-12-24T14:45:18.348Z,101208.56
2022-12-24T14:47:54.494Z,101201.81
2022-12-24T14:50:43.515Z,101192.22
2022-12-24T14:53:25.104Z,101194.38
2022-12-24T14:55:54.824Z,101197.59
2022-12-24T14:58:27.187Z,101173.53
2022-12-24T15:00:58.436Z,101194.75
2022-12-24T15:03:28.836Z,101196.97
2022-12-24T15:06:00.278Z,101201.88
2022-12-24T15:08:34.547Z,101098.13
2022-12-24T15:11:08.678Z,101179.66
2022-12-24T15:13:40.042Z,101181.19
2022-12-24T15:16:11.296Z,101208.28
2022-12-24T15:18:44.368Z,101206.78
2022-12-24T15:21:20.255Z,101205.28
2022-12-24T15:23:50.795Z,101216.75
2022-12-24T15:26:29.005Z,101200.06
2022-12-24T15:29:03.265Z,101179.03
2022-12-24T15:31:33.084Z,101196.03
2022-12-24T15:34:01.722Z,101202.59
2022-12-24T15:36:32.702Z,101167.22
2022-12-24T15:39:04.521Z,101209.34
2022-12-24T15:42:01.310Z,101203.97
2022-12-24T15:44:31.004Z,101201.59
2022-12-24T15:47:01.139Z,101200.38
2022-12-24T15:49:32.585Z,101173.09
2022-12-24T15:52:05.939Z,101205.56
2022-12-24T15:54:34.891Z,101204.91
2022-12-24T15:57:16.263Z,101212.63
2022-12-24T15:59:44.692Z,101205.53
2022-12-24T16:02:35.254Z,101203.47
2022-12-24T16:05:21.073Z,101175.13
2022-12-24T16:08:10.938Z,101214.34
2022-12-24T16:10:42.675Z,101208.41
2022-12-24T16:13:21.875Z,101215.59
2022-12-24T16:15:54.808Z,101219.88
2022-12-24T16:18:28.362Z,101224.66
2022-12-24T16:20:58.581Z,101234.38
2022-12-24T16:23:33.970Z,101200.41
2022-12-24T16:26:02.431Z,101244.25
2022-12-24T16:28:32.487Z,101243.00
2022-12-24T16:31:01.039Z,101251.28
2022-12-24T16:33:30.059Z,101238.94
2022-12-24T16:35:58.672Z,101226.28
2022-12-24T16:38:46.941Z,101240.44
2022-12-24T16:41:15.322Z,101254.00
2022-12-24T16:43:53.123Z,101260.78
2022-12-24T16:46:21.473Z,101256.59
2022-12-24T16:48:50.485Z,101254.50
2022-12-24T16:51:18.774Z,101247.66
2022-12-24T16:53:46.987Z,101250.94
2022-12-24T16:56:17.104Z,101238.66
2022-12-24T16:58:49.683Z,101244.91
2022-12-24T17:01:23.007Z,101260.78
2022-12-24T17:03:51.632Z,101263.63
2022-12-24T17:06:19.975Z,101263.66
2022-12-24T17:08:49.867Z,101264.63
2022-12-24T17:11:18.096Z,101264.50
2022-12-24T17:13:46.375Z,101256.31
2022-12-24T17:16:16.139Z,101272.25
2022-12-24T17:18:44.525Z,101272.81
2022-12-24T17:21:13.893Z,101270.00
2022-12-24T17:23:42.805Z,101265.63
2022-12-24T17:26:14.988Z,101143.53
2022-12-24T17:28:44.158Z,101273.81
2022-12-24T17:31:14.401Z,101223.88
2022-12-24T17:33:44.841Z,101279.97
2022-12-24T17:36:16.189Z,101281.69
2022-12-24T17:38:44.474Z,101290.97
2022-12-24T17:41:14.973Z,101158.78
2022-12-24T17:51:50.599Z,101304.56
2022-12-24T17:54:19.026Z,101294.13
2022-12-24T17:56:47.307Z,101295.50
2022-12-24T17:59:15.673Z,101298.69
2022-12-24T18:01:43.992Z,101296.28
2022-12-24T18:04:12.348Z,101275.81
2022-12-24T18:06:47.212Z,101298.88
2022-12-24T18:09:18.831Z,101290.13
2022-12-24T18:11:47.445Z,101298.41
2022-12-24T18:14:16.062Z,101287.25
2022-12-24T18:16:46.188Z,101277.91
2022-12-24T18:19:14.556Z,101286.06
2022-12-24T18:21:42.912Z,101290.81
2022-12-24T18:24:12.463Z,101282.22
2022-12-24T18:26:42.091Z,101299.63
2022-12-24T18:29:10.999Z,101293.44
2022-12-24T18:31:40.140Z,101290.91
2022-12-24T18:34:10.522Z,101285.69
2022-12-24T18:36:38.912Z,101287.28
2022-12-24T18:39:07.491Z,101298.84
2022-12-24T18:41:43.123Z,101294.22
2022-12-24T18:44:11.525Z,101316.91
2022-12-24T18:46:39.875Z,101317.78
2022-12-24T18:49:08.246Z,101316.59
2022-12-24T18:51:36.605Z,101315.75
2022-12-24T18:54:05.881Z,101313.59
2022-12-24T18:56:34.146Z,101316.78
2022-12-24T18:59:04.435Z,101322.00
2022-12-24T19:01:34.889Z,101334.75
2022-12-24T19:04:04.255Z,101320.53
2022-12-24T19:06:34.514Z,101326.84
2022-12-24T19:09:02.908Z,101329.31
2022-12-24T19:11:34.062Z,101330.94
2022-12-24T19:14:05.587Z,101327.28
2022-12-24T19:16:37.302Z,101327.78
2022-12-24T19:19:08.829Z,101341.03
2022-12-24T19:21:37.471Z,101332.78
2022-12-24T19:24:07.452Z,101335.09
2022-12-24T19:26:35.735Z,101337.66
2022-12-24T19:29:05.492Z,101336.91
2022-12-24T19:31:33.946Z,101336.63
2022-12-24T19:34:02.253Z,101342.25
2022-12-24T19:36:31.713Z,101341.63
2022-12-24T19:39:00.503Z,101336.06
2022-12-24T19:41:31.852Z,101204.69
2022-12-24T19:44:02.199Z,101305.50
2022-12-24T19:46:33.899Z,101350.00
2022-12-24T19:49:05.464Z,101336.28
2022-12-24T19:55:20.983Z,101341.13
2022-12-24T19:57:49.323Z,101339.94
2022-12-24T20:00:18.392Z,101345.25
2022-12-24T20:02:48.165Z,101345.84
2022-12-24T20:05:16.672Z,101348.97
2022-12-24T20:07:44.987Z,101344.47
2022-12-24T20:10:13.428Z,101338.78
2022-12-24T20:12:41.738Z,101339.03
2022-12-24T20:15:10.892Z,101335.84
2022-12-24T20:17:39.169Z,101341.63
2022-12-24T20:20:10.158Z,101344.66
2022-12-24T20:22:38.462Z,101308.38
2022-12-24T20:25:07.728Z,101348.88
2022-12-24T20:27:36.079Z,101308.84
2022-12-24T20:30:04.808Z,101242.34
2022-12-24T20:32:33.211Z,101347.75
2022-12-24T20:35:02.576Z,101348.09
2022-12-24T20:37:32.269Z,101350.75
2022-12-24T20:40:00.740Z,101336.94
2022-12-24T20:42:28.986Z,101348.19
2022-12-24T20:44:57.240Z,101352.22
2022-12-24T20:47:25.597Z,101346.91
2022-12-24T20:49:54.952Z,101357.44
2022-12-24T20:52:24.222Z,101353.19
2022-12-24T20:54:54.048Z,101360.44
2022-12-24T20:57:26.843Z,101336.78
2022-12-24T20:59:57.771Z,101353.84
2022-12-24T21:02:27.646Z,101363.97
2022-12-24T21:05:01.622Z,101362.50
2022-12-24T21:07:30.840Z,101367.06
2022-12-24T21:10:01.126Z,101364.75
2022-12-24T21:12:46.727Z,101367.78
2022-12-24T21:15:15.137Z,101366.06
2022-12-24T21:17:43.380Z,101352.41
2022-12-24T21:20:12.984Z,101361.25
2022-12-24T21:22:41.748Z,101361.09
2022-12-24T21:25:12.891Z,101364.59
2022-12-24T21:27:42.277Z,101368.44
2022-12-24T21:30:11.724Z,101365.25
2022-12-24T21:32:40.030Z,101357.38
2022-12-24T21:35:08.857Z,101361.41
2022-12-24T21:37:37.248Z,101362.38
2022-12-24T21:40:08.195Z,101362.50
2022-12-24T21:42:38.267Z,101363.13
2022-12-24T21:45:07.535Z,101358.88
2022-12-24T21:47:38.219Z,101366.16
2022-12-24T21:50:28.246Z,101349.53
2022-12-24T21:53:13.968Z,101360.84
2022-12-24T21:55:42.306Z,101357.53
2022-12-24T21:58:11.388Z,101361.91
2022-12-24T22:00:39.845Z,101352.88
2022-12-24T22:03:08.228Z,101363.28
2022-12-24T22:05:37.034Z,101355.84
2022-12-24T22:08:23.845Z,101365.41
2022-12-24T22:11:09.942Z,101359.34
2022-12-24T22:13:39.612Z,101364.66
2022-12-24T22:16:08.224Z,101360.94
2022-12-24T22:18:36.538Z,101371.94
2022-12-24T22:21:04.987Z,101369.16
2022-12-24T22:23:38.555Z,101359.06
2022-12-24T22:26:13.771Z,101355.88
2022-12-24T22:28:45.021Z,101378.59
2022-12-24T22:31:24.391Z,101364.69
2022-12-24T22:33:52.701Z,101366.88
2022-12-24T22:36:20.914Z,101381.16
2022-12-24T22:38:49.251Z,101375.94
2022-12-24T22:41:17.862Z,101379.69
2022-12-24T22:43:47.473Z,101384.25
2022-12-24T22:46:15.881Z,101380.41
2022-12-24T22:48:45.907Z,101385.97
2022-12-24T22:51:16.653Z,101397.78
2022-12-24T22:53:45.367Z,101386.19
2022-12-24T22:56:17.015Z,101375.13
2022-12-24T22:58:47.175Z,101376.59
2022-12-24T23:01:17.701Z,101388.31
2022-12-24T23:03:47.546Z,101390.75
2022-12-24T23:06:15.911Z,101378.19
2022-12-24T23:08:44.275Z,101372.25
2022-12-24T23:11:14.657Z,101370.84
2022-12-24T23:14:02.126Z,101370.84
2022-12-24T23:16:32.804Z,101370.84
2022-12-24T23:19:03.949Z,101232.28
2022-12-24T23:21:32.706Z,101368.72
2022-12-24T23:24:02.280Z,101361.91
2022-12-24T23:26:31.186Z,101356.22
2022-12-24T23:28:59.705Z,101361.53
2022-12-24T23:31:28.533Z,101359.06
2022-12-24T23:33:58.301Z,101357.47
2022-12-24T23:36:26.587Z,101360.25
2022-12-24T23:38:55.166Z,101354.19
2022-12-24T23:41:26.333Z,101349.50
2022-12-24T23:43:54.946Z,101351.28
2022-12-24T23:46:23.380Z,101358.22
2022-12-24T23:48:55.073Z,101344.72
2022-12-24T23:51:27.400Z,101352.34
2022-12-24T23:53:57.423Z,101343.03
2022-12-24T23:56:26.835Z,101340.25
2022-12-24T23:58:55.438Z,101349.19
